Time;durP1;ratioP1;P1;durP2;ratioP2;P2;SDS_P1;SDS_P2;PMS_P1;PMS_P2;Temp;Humidity;BMP_temperature;BMP_pressure;BME280_temperature;BME280_humidity;BME280_pressure;Samples;Min_cycle;Max_cycle;Signal;HPM_P1;HPM_P2
2022/05/12 00:02:01;;;;;;;19.95;7.47;;;;;;;9.72;38.90;98462.97;5096525;27;20656;-67
2022/05/12 00:04:27;;;;;;;18.33;6.70;;;;;;;9.76;38.81;98459.94;5096282;27;20038;-69
2022/05/12 00:06:52;;;;;;;19.35;7.53;;;;;;;9.76;39.21;98465.25;5096151;27;20043;-67
2022/05/12 00:09:17;;;;;;;15.93;7.55;;;;;;;9.76;38.35;98462.59;5077814;27;20039;-68
2022/05/12 00:11:42;;;;;;;16.50;7.15;;;;;;;9.78;38.57;98473.13;5058155;28;20046;-69
2022/05/12 00:14:07;;;;;;;14.75;6.88;;;;;;;9.76;38.98;98467.06;5055286;28;20040;-68
2022/05/12 00:16:32;;;;;;;13.85;6.72;;;;;;;9.81;37.75;98463.06;5054362;28;20127;-68
2022/05/12 00:18:56;;;;;;;13.30;6.88;;;;;;;9.83;38.83;98457.56;5036640;28;20048;-67
2022/05/12 00:21:21;;;;;;;13.20;6.85;;;;;;;9.81;38.24;98460.41;5054450;28;20048;-63
2022/05/12 00:23:56;;;;;;;14.43;6.93;;;;;;;9.76;38.64;98467.91;5056092;28;20044;-65
2022/05/12 00:26:20;;;;;;;;;;;;;;;9.90;38.11;98464.06;5055428;28;20051;-65
2022/05/12 00:28:45;;;;;;;21.23;6.82;;;;;;;9.76;39.36;98457.28;5054441;28;19916;-63
2022/05/12 00:31:10;;;;;;;14.02;7.18;;;;;;;9.75;38.72;98460.91;5056311;28;20040;-65
2022/05/12 00:33:34;;;;;;;13.77;6.72;;;;;;;9.75;38.03;98460.91;5054948;28;20142;-64
2022/05/12 00:35:59;;;;;;;14.60;6.50;;;;;;;9.72;38.51;98449.69;5038227;28;20036;-67
2022/05/12 00:38:24;;;;;;;14.25;6.70;;;;;;;9.67;38.39;98447.44;5058800;28;20052;-68
2022/05/12 00:40:49;;;;;;;13.85;6.10;;;;;;;9.73;38.44;98446.88;5039054;28;20036;-69
2022/05/12 00:43:38;;;;;;;13.98;6.53;;;;;;;9.75;38.24;98441.44;5055586;28;20039;-65
2022/05/12 00:46:06;;;;;;;11.20;6.95;;;;;;;9.66;39.43;98443.09;5055846;28;20048;-64
2022/05/12 00:48:31;;;;;;;15.02;6.10;;;;;;;9.66;38.28;98444.91;5039793;28;20156;-62
2022/05/12 00:50:56;;;;;;;18.80;7.88;;;;;;;9.66;38.47;98443.09;5054514;28;20126;-64
2022/05/12 00:53:22;;;;;;;18.63;6.43;;;;;;;9.70;39.07;98443.66;5054048;28;20441;-66
2022/05/12 00:55:47;;;;;;;11.85;6.35;;;;;;;9.70;38.37;98439.19;5054044;28;20039;-65
2022/05/12 00:58:16;;;;;;;12.13;6.00;;;;;;;9.71;38.72;98438.19;5052590;28;20050;-64
2022/05/12 01:00:41;;;;;;;20.85;7.28;;;;;;;9.72;38.38;98431.91;5053053;28;20036;-65
2022/05/12 01:03:15;;;;;;;13.43;5.45;;;;;;;9.75;38.79;98444.09;5054423;28;20044;-64
2022/05/12 01:05:40;;;;;;;13.32;6.55;;;;;;;9.72;38.68;98439.88;5052791;28;20036;-63
2022/05/12 01:08:05;;;;;;;12.45;6.30;;;;;;;9.68;38.54;98438.47;5069817;28;20047;-64
2022/05/12 01:10:30;;;;;;;11.57;5.90;;;;;;;9.68;38.55;98437.63;5052500;28;20077;-67
2022/05/12 01:12:55;;;;;;;10.60;5.82;;;;;;;9.68;38.47;98427.00;5052589;28;20066;-65
2022/05/12 01:15:24;;;;;;;11.95;5.60;;;;;;;9.69;39.15;98426.88;5054390;28;20075;-63
2022/05/12 01:17:48;;;;;;;12.88;5.35;;;;;;;9.72;38.63;98426.56;5053324;28;20036;-63
2022/05/12 01:20:14;;;;;;;18.15;6.65;;;;;;;9.76;39.56;98419.16;5053729;28;20038;-63
2022/05/12 01:22:59;;;;;;;12.95;6.47;;;;;;;9.84;38.85;98416.66;5055882;28;20044;-62
2022/05/12 01:25:28;;;;;;;13.65;6.57;;;;;;;9.82;38.45;98414.13;5070905;28;20039;-62
2022/05/12 01:27:53;;;;;;;11.00;5.20;;;;;;;9.81;38.48;98415.16;5053366;28;20047;-64
2022/05/12 01:30:20;;;;;;;13.77;6.15;;;;;;;9.82;38.93;98416.81;5054680;28;20040;-63
2022/05/12 01:32:49;;;;;;;12.48;5.95;;;;;;;9.84;38.24;98409.53;5053173;28;20414;-62
2022/05/12 01:35:20;;;;;;;9.07;5.28;;;;;;;9.93;38.53;98415.84;5051112;28;20040;-63
2022/05/12 01:37:46;;;;;;;11.85;5.22;;;;;;;10.00;38.29;98410.84;5058629;28;20046;-63
2022/05/12 01:40:14;;;;;;;11.10;5.35;;;;;;;10.13;38.51;98414.09;5058839;28;20046;-65
2022/05/12 01:42:39;;;;;;;13.75;5.80;;;;;;;10.21;37.84;98411.63;5073956;28;20044;-69
2022/05/12 01:45:06;;;;;;;13.57;5.55;;;;;;;10.28;38.13;98414.56;5054451;28;20028;-65
2022/05/12 01:47:31;;;;;;;10.63;5.88;;;;;;;10.32;38.14;98416.84;5059360;28;20139;-66
2022/05/12 01:49:55;;;;;;;11.02;5.72;;;;;;;10.39;37.40;98423.28;5058901;28;20122;-66
2022/05/12 01:52:20;;;;;;;12.30;5.85;;;;;;;10.43;38.48;98418.53;5059014;28;20143;-69
2022/05/12 01:54:45;;;;;;;14.75;6.13;;;;;;;10.44;38.21;98421.06;5058518;28;20490;-65
2022/05/12 01:57:10;;;;;;;13.80;5.60;;;;;;;10.47;38.12;98417.28;5040804;28;20384;-67
2022/05/12 01:59:34;;;;;;;15.70;7.45;;;;;;;10.48;38.22;98418.97;5074382;28;20048;-62
2022/05/12 02:01:59;;;;;;;16.95;5.90;;;;;;;10.52;38.56;98412.34;5040290;28;20123;-61
2022/05/12 02:04:24;;;;;;;12.60;5.78;;;;;;;10.54;37.52;98410.41;5058475;28;20043;-60
2022/05/12 02:06:49;;;;;;;12.57;5.63;;;;;;;10.48;38.20;98414.47;5058155;28;20051;-61
2022/05/12 02:09:14;;;;;;;9.93;5.55;;;;;;;10.44;38.48;98407.75;5058811;28;20089;-62
2022/05/12 02:11:39;;;;;;;16.92;6.13;;;;;;;10.40;38.43;98414.31;5090228;27;20059;-63
2022/05/12 02:14:05;;;;;;;11.75;6.40;;;;;;;10.39;38.71;98411.78;5081016;27;20516;-63
2022/05/12 02:16:33;;;;;;;22.35;6.82;;;;;;;10.42;38.63;98411.50;5099468;27;20047;-63
2022/05/12 02:18:58;;;;;;;10.68;5.50;;;;;;;10.37;38.66;98416.44;5098915;27;20115;-74
2022/05/12 02:21:23;;;;;;;12.15;5.72;;;;;;;10.38;39.18;98410.97;5077615;27;20080;-72
2022/05/12 02:23:47;;;;;;;13.38;6.35;;;;;;;10.40;38.89;98408.97;5081085;28;20050;-70
2022/05/12 02:26:13;;;;;;;14.00;6.18;;;;;;;10.45;39.06;98416.56;5063552;28;20058;-72
2022/05/12 02:28:38;;;;;;;14.50;5.78;;;;;;;10.49;38.82;98404.66;5073433;27;20030;-72
2022/05/12 02:31:03;;;;;;;35.63;7.03;;;;;;;10.55;39.15;98412.94;5082237;27;20050;-76
2022/05/12 02:33:28;;;;;;;11.48;5.35;;;;;;;10.61;38.50;98405.38;5104927;27;20039;-70
2022/05/12 02:35:53;;;;;;;9.75;5.97;;;;;;;10.63;38.74;98406.91;5094929;27;20082;-70
2022/05/12 02:38:17;;;;;;;9.82;5.35;;;;;;;10.66;39.23;98411.97;5083812;28;20043;-70
2022/05/12 02:40:42;;;;;;;13.98;6.28;;;;;;;10.67;39.10;98408.31;5084288;28;20051;-68
2022/05/12 02:43:23;;;;;;;11.60;6.28;;;;;;;10.65;39.34;98404.09;5062944;28;20043;-63
2022/05/12 02:45:48;;;;;;;10.82;5.65;;;;;;;10.64;39.29;98405.91;5064114;28;20517;-63
2022/05/12 02:48:12;;;;;;;12.98;5.18;;;;;;;10.67;39.60;98405.66;5078955;28;20482;-67
2022/05/12 02:50:37;;;;;;;17.50;6.28;;;;;;;10.71;39.71;98407.06;5060705;28;20128;-66
2022/05/12 02:53:02;;;;;;;12.52;5.60;;;;;;;10.76;39.50;98412.78;5060644;28;20078;-67
2022/05/12 02:55:26;;;;;;;10.05;5.65;;;;;;;10.81;39.85;98404.38;5078132;28;20043;-65
2022/05/12 02:57:51;;;;;;;12.25;5.93;;;;;;;10.86;39.74;98404.78;5060037;28;20138;-64
2022/05/12 03:00:17;;;;;;;11.38;5.32;;;;;;;10.94;39.86;98402.28;5078161;28;20055;-65
2022/05/12 03:02:42;;;;;;;13.35;5.20;;;;;;;10.97;39.78;98401.97;5082013;28;20058;-65
2022/05/12 03:05:07;;;;;;;10.15;6.40;;;;;;;11.01;39.99;98403.38;5063663;28;20398;-64
2022/05/12 03:07:33;;;;;;;19.92;5.63;;;;;;;11.03;40.07;98398.75;5060195;28;20039;-65
2022/05/12 03:09:58;;;;;;;15.18;6.18;;;;;;;11.07;39.76;98396.63;5060240;28;20120;-68
2022/05/12 03:12:23;;;;;;;10.73;6.13;;;;;;;11.11;40.17;98390.88;5061176;28;20086;-66
2022/05/12 03:14:48;;;;;;;15.13;6.75;;;;;;;11.17;39.74;98389.47;5079181;28;20036;-65
2022/05/12 03:17:13;;;;;;;10.07;5.78;;;;;;;11.28;39.90;98382.13;5062362;28;20129;-63
2022/05/12 03:19:38;;;;;;;13.68;5.90;;;;;;;11.29;39.82;98382.94;5063198;28;20039;-64
2022/05/12 03:22:03;;;;;;;10.32;5.70;;;;;;;11.35;39.93;98384.22;5080708;28;20474;-64
2022/05/12 03:24:28;;;;;;;14.00;5.82;;;;;;;11.39;39.83;98378.44;5080234;28;20473;-64
2022/05/12 03:26:53;;;;;;;20.02;6.53;;;;;;;11.40;40.11;98377.44;5059920;28;20044;-63
2022/05/12 03:29:17;;;;;;;13.27;6.32;;;;;;;11.41;40.22;98375.59;5059121;28;20051;-64
2022/05/12 03:31:42;;;;;;;17.40;6.43;;;;;;;11.38;40.70;98370.59;5076007;28;20092;-68
2022/05/12 03:34:07;;;;;;;17.90;6.10;;;;;;;11.40;40.91;98371.28;5059488;28;20047;-64
2022/05/12 03:36:38;;;;;;;13.00;6.88;;;;;;;11.47;40.92;98370.53;5077498;28;20044;-64
2022/05/12 03:39:04;;;;;;;10.73;5.60;;;;;;;11.54;40.54;98370.78;5077517;28;20077;-65
2022/05/12 03:41:29;;;;;;;14.90;6.75;;;;;;;11.62;40.76;98373.59;5059557;28;20043;-64
2022/05/12 03:46:38;;;;;;;10.23;5.93;;;;;;;11.83;40.48;98384.91;5059645;28;20039;-63
2022/05/12 03:49:02;;;;;;;9.13;6.07;;;;;;;11.92;40.45;98391.16;5078740;28;20096;-64
2022/05/12 03:51:27;;;;;;;12.05;6.15;;;;;;;12.00;40.22;98385.91;5077292;28;20172;-64
2022/05/12 03:53:52;;;;;;;11.60;6.07;;;;;;;12.06;40.41;98392.50;5075686;28;20047;-64
2022/05/12 03:56:17;;;;;;;16.02;6.25;;;;;;;12.12;40.16;98390.06;5077891;28;20123;-64
2022/05/12 03:58:43;;;;;;;12.27;5.78;;;;;;;12.17;40.15;98392.31;5078059;28;20061;-64
2022/05/12 04:01:08;;;;;;;11.63;6.05;;;;;;;12.22;40.40;98385.50;5057830;28;20050;-64
2022/05/12 04:03:33;;;;;;;14.88;5.63;;;;;;;12.32;40.35;98390.78;5076335;28;20044;-65
2022/05/12 04:06:01;;;;;;;20.15;6.13;;;;;;;12.39;40.24;98383.00;5060001;28;20146;-65
2022/05/12 04:08:26;;;;;;;12.90;6.07;;;;;;;12.50;40.00;98388.97;5067635;28;20052;-66
2022/05/12 04:10:51;;;;;;;11.35;5.28;;;;;;;12.56;39.77;98380.34;5089296;28;20062;-65
2022/05/12 04:13:16;;;;;;;16.88;6.75;;;;;;;12.58;40.05;98381.03;5087529;28;20039;-65
2022/05/12 04:15:40;;;;;;;13.63;5.28;;;;;;;12.62;39.84;98379.75;5069403;28;20079;-65
2022/05/12 04:18:05;;;;;;;10.32;5.00;;;;;;;12.68;39.89;98364.91;5067754;28;20039;-65
2022/05/12 04:20:33;;;;;;;17.95;6.57;;;;;;;12.81;40.18;98377.88;5066903;28;20130;-67
2022/05/12 04:22:58;;;;;;;10.05;5.43;;;;;;;12.95;39.71;98378.19;5082732;28;20039;-64
2022/05/12 04:25:23;;;;;;;9.63;4.97;;;;;;;13.15;39.58;98370.81;5065331;28;20088;-64
2022/05/12 04:27:48;;;;;;;12.45;5.63;;;;;;;13.36;39.61;98365.94;5078062;28;20536;-65
2022/05/12 04:30:15;;;;;;;15.18;5.50;;;;;;;13.55;39.53;98358.66;5057730;28;20467;-65
2022/05/12 04:32:42;;;;;;;15.82;5.43;;;;;;;13.66;38.83;98358.38;5058059;28;20050;-66
2022/05/12 04:35:12;;;;;;;41.63;17.90;;;;;;;13.77;39.07;98353.59;5075792;28;20063;-66
2022/05/12 04:37:41;;;;;;;19.08;6.93;;;;;;;13.85;38.62;98355.47;5040959;28;20047;-66
2022/05/12 04:40:13;;;;;;;11.20;6.22;;;;;;;13.93;39.44;98354.66;5076181;28;20035;-66
2022/05/12 04:42:38;;;;;;;11.57;5.38;;;;;;;13.96;38.92;98340.94;5076415;28;20490;-65
2022/05/12 04:45:05;;;;;;;14.13;5.70;;;;;;;13.96;38.27;98341.78;5060718;28;20575;-65
2022/05/12 04:47:30;;;;;;;9.63;5.22;;;;;;;13.94;39.20;98341.09;5040635;28;20047;-64
2022/05/12 04:49:56;;;;;;;13.88;5.28;;;;;;;14.02;39.48;98342.97;5057177;28;20035;-65
2022/05/12 04:52:21;;;;;;;9.25;5.32;;;;;;;14.10;38.91;98338.47;5057335;28;20075;-65
2022/05/12 04:54:46;;;;;;;15.52;5.70;;;;;;;14.13;38.97;98343.50;5075164;28;20531;-65
2022/05/12 04:57:10;;;;;;;10.85;4.97;;;;;;;14.10;39.63;98338.47;5074219;28;20035;-64
2022/05/12 04:59:35;;;;;;;11.32;6.45;;;;;;;14.07;39.46;98324.56;5057070;28;20039;-64
2022/05/12 05:02:00;;;;;;;14.38;5.97;;;;;;;14.06;39.92;98326.41;5040129;28;20050;-65
2022/05/12 05:04:25;;;;;;;14.85;6.03;;;;;;;14.07;39.65;98330.75;5057360;28;20039;-65
2022/05/12 05:06:50;;;;;;;13.73;5.40;;;;;;;14.08;39.54;98329.75;5057216;28;20046;-64
2022/05/12 05:09:14;;;;;;;10.25;5.60;;;;;;;14.16;39.84;98328.94;5075216;28;20040;-64
2022/05/12 05:11:39;;;;;;;15.65;7.03;;;;;;;14.28;39.90;98332.16;5074729;28;20062;-65
2022/05/12 05:14:04;;;;;;;12.95;6.07;;;;;;;14.42;39.73;98328.84;5075109;28;20585;-66
2022/05/12 05:16:29;;;;;;;11.73;6.47;;;;;;;14.57;39.99;98323.66;5075535;28;20089;-65
2022/05/12 05:18:54;;;;;;;13.35;5.90;;;;;;;14.69;39.80;98320.47;5075424;28;20039;-65
2022/05/12 05:21:18;;;;;;;12.77;5.93;;;;;;;14.90;39.72;98320.78;5075036;28;20096;-65
2022/05/12 05:23:43;;;;;;;11.80;5.20;;;;;;;15.14;38.76;98316.41;5058159;28;20117;-66
2022/05/12 05:26:08;;;;;;;16.23;5.53;;;;;;;15.19;38.56;98314.91;5076549;28;20046;-65
2022/05/12 05:28:32;;;;;;;11.40;5.95;;;;;;;15.21;38.72;98317.41;5043017;28;20048;-66
2022/05/12 05:30:57;;;;;;;16.55;5.63;;;;;;;15.32;38.36;98313.53;5080229;28;20055;-65
2022/05/12 05:33:22;;;;;;;11.48;5.53;;;;;;;15.63;38.22;98329.72;5081129;28;20046;-65
2022/05/12 05:35:48;;;;;;;12.38;5.55;;;;;;;15.97;36.95;98314.97;5076162;28;20054;-65
2022/05/12 05:38:12;;;;;;;11.70;4.95;;;;;;;16.20;36.44;98312.31;5058426;28;20044;-65
2022/05/12 05:40:37;;;;;;;25.38;6.32;;;;;;;16.30;36.54;98315.63;5077336;28;20120;-65
2022/05/12 05:43:03;;;;;;;11.63;6.18;;;;;;;16.42;36.39;98315.19;5076636;28;20039;-64
2022/05/12 05:45:28;;;;;;;9.20;5.40;;;;;;;16.70;35.87;98302.94;5056796;28;20101;-65
2022/05/12 05:47:57;;;;;;;10.90;5.78;;;;;;;16.99;35.36;98305.69;5074982;28;20039;-64
2022/05/12 05:50:25;;;;;;;14.80;5.65;;;;;;;17.62;34.73;98300.78;5074920;28;20051;-65
2022/05/12 05:55:34;;;;;;;15.00;5.95;;;;;;;18.89;32.63;98304.72;5056856;28;20078;-64
2022/05/12 05:58:03;;;;;;;14.85;5.75;;;;;;;19.32;32.37;98300.91;5040192;28;20410;-64
2022/05/12 06:00:31;;;;;;;12.13;5.57;;;;;;;19.86;31.81;98298.31;5075055;28;20047;-65
2022/05/12 06:02:56;;;;;;;15.43;6.32;;;;;;;21.27;30.00;98293.81;5074978;28;20092;-65
2022/05/12 06:05:21;;;;;;;10.70;6.00;;;;;;;22.79;27.87;98292.19;5056471;28;20036;-64
2022/05/12 06:07:46;;;;;;;17.65;6.25;;;;;;;23.31;26.73;98300.09;5075174;28;20406;-64
2022/05/12 06:10:11;;;;;;;12.02;5.60;;;;;;;22.92;27.14;98290.41;5075077;28;20047;-64
2022/05/12 06:12:37;;;;;;;9.23;4.90;;;;;;;22.11;28.12;98295.72;5074976;28;20052;-64
2022/05/12 06:15:02;;;;;;;8.38;5.47;;;;;;;21.36;29.05;98290.69;5075017;28;20402;-65
2022/05/12 06:17:28;;;;;;;18.13;6.28;;;;;;;20.63;29.96;98273.59;5057021;28;20047;-66
2022/05/12 06:19:54;;;;;;;12.25;5.43;;;;;;;20.00;31.14;98265.91;5057129;28;20051;-66
2022/05/12 06:22:22;;;;;;;12.63;5.40;;;;;;;19.49;31.84;98277.16;5039624;28;20042;-66
2022/05/12 06:24:47;;;;;;;24.90;6.63;;;;;;;19.04;32.63;98276.63;5060234;28;20126;-65
2022/05/12 06:27:12;;;;;;;15.15;6.72;;;;;;;18.88;32.95;98271.50;5060122;28;20086;-65
2022/05/12 06:29:37;;;;;;;8.02;4.88;;;;;;;19.02;32.83;98267.88;5059935;28;20063;-65
2022/05/12 06:32:06;;;;;;;10.45;5.65;;;;;;;19.66;32.09;98269.53;5078243;28;20130;-65
2022/05/12 06:34:30;;;;;;;12.93;5.28;;;;;;;20.43;31.15;98256.47;5060296;28;20066;-64
2022/05/12 06:36:57;;;;;;;8.07;5.18;;;;;;;21.63;29.51;98249.94;5078443;28;20063;-64
2022/05/12 06:39:22;;;;;;;11.77;4.93;;;;;;;22.63;27.86;98249.22;5078738;28;20062;-64
2022/05/12 06:41:46;;;;;;;7.85;4.80;;;;;;;23.70;26.79;98252.66;5078376;28;20071;-63
2022/05/12 06:44:11;;;;;;;9.60;4.68;;;;;;;24.58;25.33;98242.06;5078039;28;20071;-64
2022/05/12 06:46:38;;;;;;;9.98;4.53;;;;;;;25.20;24.83;98237.88;5078041;28;20039;-66
2022/05/12 06:49:03;;;;;;;11.48;4.88;;;;;;;26.20;23.36;98240.28;5059982;28;20489;-65
2022/05/12 06:51:28;;;;;;;8.38;3.80;;;;;;;27.09;22.29;98262.41;5078122;28;20067;-64
2022/05/12 06:53:53;;;;;;;10.35;5.20;;;;;;;27.49;21.89;98248.53;5060275;28;20082;-64
2022/05/12 06:56:18;;;;;;;10.25;4.72;;;;;;;27.75;21.59;98256.06;5062815;28;20106;-65
2022/05/12 06:58:42;;;;;;;7.93;4.38;;;;;;;27.66;21.73;98252.06;5077930;28;20039;-65
2022/05/12 07:01:09;;;;;;;16.98;4.57;;;;;;;27.13;22.23;98257.28;5077550;28;20494;-64
2022/05/12 07:03:33;;;;;;;10.00;4.45;;;;;;;26.28;23.23;98242.69;5059509;28;20042;-65
2022/05/12 07:05:58;;;;;;;10.27;4.70;;;;;;;26.32;23.35;98243.00;5059272;28;20040;-64
2022/05/12 07:08:26;;;;;;;15.80;5.10;;;;;;;26.45;23.04;98247.34;5077666;28;20058;-66
2022/05/12 07:10:51;;;;;;;7.85;4.60;;;;;;;27.43;22.51;98233.94;5077936;28;20055;-63
2022/05/12 07:13:20;;;;;;;10.68;5.57;;;;;;;28.87;20.95;98227.16;5060319;28;20040;-64
2022/05/12 07:15:49;;;;;;;8.55;4.60;;;;;;;30.72;19.91;98225.88;5060404;28;20040;-63
2022/05/12 07:18:16;;;;;;;8.10;4.57;;;;;;;32.09;18.62;98234.72;5077583;28;20067;-63
2022/05/12 07:28:50;;;;;;;13.35;4.65;;;;;;;28.79;20.85;98231.19;5076657;28;20052;-62
2022/05/12 07:31:15;;;;;;;8.20;4.88;;;;;;;27.45;22.36;98233.69;5058737;28;20045;-63
2022/05/12 07:33:42;;;;;;;9.35;4.97;;;;;;;26.72;23.34;98232.00;5058432;28;20054;-63
2022/05/12 07:36:14;;;;;;;8.23;4.63;;;;;;;27.20;22.70;98227.88;5076898;28;20154;-63
2022/05/12 07:38:39;;;;;;;9.05;4.93;;;;;;;27.35;22.36;98220.69;5076645;28;20040;-63
2022/05/12 07:41:09;;;;;;;8.65;5.00;;;;;;;27.24;22.80;98201.63;5076514;28;20051;-64
2022/05/12 07:43:34;;;;;;;14.90;5.00;;;;;;;28.23;22.24;98194.16;5058435;28;20039;-63
2022/05/12 07:45:59;;;;;;;15.85;6.28;;;;;;;30.17;20.61;98194.41;5058061;28;20047;-62
2022/05/12 07:48:23;;;;;;;6.97;4.93;;;;;;;32.21;18.82;98177.34;5076504;28;20070;-62
2022/05/12 07:50:48;;;;;;;9.77;6.60;;;;;;;33.82;17.13;98181.72;5058160;28;20142;-64
2022/05/12 07:53:13;;;;;;;7.60;4.80;;;;;;;35.13;16.46;98194.69;5058955;28;20054;-64
2022/05/12 07:55:38;;;;;;;10.98;5.07;;;;;;;36.20;15.17;98201.78;5059124;28;20046;-63
2022/05/12 07:58:04;;;;;;;6.95;5.30;;;;;;;36.18;15.06;98210.41;5078121;28;20048;-63
2022/05/12 08:00:30;;;;;;;13.43;5.57;;;;;;;37.01;14.58;98195.16;5076928;28;20047;-63
2022/05/12 08:02:56;;;;;;;9.75;5.10;;;;;;;36.56;14.70;98201.81;5058542;28;20046;-63
2022/05/12 08:05:21;;;;;;;6.70;5.68;;;;;;;36.45;15.33;98195.69;5077187;28;20043;-63
2022/05/12 08:07:48;;;;;;;10.65;5.50;;;;;;;36.70;14.74;98185.94;5077752;28;20096;-63
2022/05/12 08:10:13;;;;;;;12.52;6.22;;;;;;;36.68;14.73;98182.63;5077811;28;20078;-64
2022/05/12 08:12:38;;;;;;;10.50;5.80;;;;;;;35.29;15.47;98179.47;5078104;28;20082;-64
2022/05/12 08:15:04;;;;;;;6.28;5.50;;;;;;;34.05;16.71;98168.97;5060182;28;20048;-63
2022/05/12 08:17:29;;;;;;;7.30;5.13;;;;;;;32.90;17.75;98156.97;5078032;28;20502;-64
2022/05/12 08:19:53;;;;;;;10.38;5.47;;;;;;;33.03;17.73;98169.28;5077338;28;20512;-63
2022/05/12 08:22:18;;;;;;;8.38;5.63;;;;;;;33.63;17.28;98167.00;5078187;28;20509;-65
2022/05/12 08:24:43;;;;;;;7.65;5.30;;;;;;;33.88;17.13;98159.22;5076880;28;20525;-64
2022/05/12 08:27:08;;;;;;;8.05;5.40;;;;;;;35.04;16.53;98160.53;5059541;28;20040;-65
2022/05/12 08:29:32;;;;;;;7.82;5.55;;;;;;;35.55;16.12;98154.88;5077987;28;20047;-64
2022/05/12 08:31:57;;;;;;;10.93;5.03;;;;;;;35.20;16.39;98148.03;5077656;28;20043;-64
2022/05/12 08:34:22;;;;;;;9.70;6.10;;;;;;;35.55;16.50;98143.78;5079146;28;20414;-64
2022/05/12 08:36:49;;;;;;;12.35;6.72;;;;;;;35.64;16.04;98147.47;5078921;28;20039;-63
2022/05/12 08:39:14;;;;;;;12.30;6.88;;;;;;;35.46;16.35;98142.84;5076610;28;20091;-63
2022/05/12 08:42:01;;;;;;;19.88;7.43;;;;;;;35.74;16.31;98152.84;5057552;28;20039;-63
2022/05/12 08:44:31;;;;;;;11.60;6.30;;;;;;;36.84;15.46;98133.91;5075716;28;20622;-64
2022/05/12 08:46:58;;;;;;;6.63;5.07;;;;;;;38.16;14.32;98138.53;5075423;28;20054;-65
2022/05/12 08:49:39;;;;;;;9.55;6.05;;;;;;;38.14;14.49;98130.56;5076214;28;20104;-65
2022/05/12 08:52:14;;;;;;;10.18;6.32;;;;;;;37.62;15.36;98131.53;5075999;28;20439;-64
2022/05/12 08:54:42;;;;;;;11.75;6.68;;;;;;;37.66;15.13;98121.44;5062337;28;20429;-64
2022/05/12 08:57:14;;;;;;;9.00;6.50;;;;;;;38.90;14.41;98118.88;5066002;28;20130;-63
2022/05/12 08:59:40;;;;;;;8.33;5.90;;;;;;;40.48;13.58;98128.59;5075546;28;20456;-64
2022/05/12 09:02:37;;;;;;;13.15;6.50;;;;;;;-143.58;100.00;61926.94;5075479;28;20751;-64
2022/05/12 09:05:11;;;;;;;12.63;7.28;;;;;;;-143.58;100.00;61926.94;5075356;28;20405;-65
2022/05/12 09:07:42;;;;;;;12.20;7.30;;;;;;;40.48;13.58;98128.59;5057122;28;20039;-63
2022/05/12 09:10:44;;;;;;;9.02;6.97;;;;;;;40.59;13.19;98107.44;5075162;28;20572;-64
2022/05/12 09:13:16;;;;;;;10.50;6.07;;;;;;;39.46;14.36;98120.53;5075173;28;20517;-64
2022/05/12 09:15:50;;;;;;;13.93;6.30;;;;;;;39.08;14.21;98109.31;5075359;28;20154;-64
2022/05/12 09:18:17;;;;;;;7.30;6.00;;;;;;;39.20;13.26;98109.44;5040384;28;20039;-63
2022/05/12 09:20:43;;;;;;;7.88;6.57;;;;;;;40.46;12.71;98105.75;5056718;28;20043;-64
2022/05/12 09:23:08;;;;;;;14.10;5.97;;;;;;;41.87;11.47;98103.47;5075239;28;20132;-64
2022/05/12 09:25:52;;;;;;;10.10;6.72;;;;;;;43.50;10.54;98115.75;5056964;28;20036;-65
2022/05/12 09:28:19;;;;;;;7.30;6.57;;;;;;;44.61;9.33;98111.50;5075188;28;20450;-64
2022/05/12 09:30:44;;;;;;;7.80;7.20;;;;;;;44.86;9.26;98112.84;5058405;28;20078;-65
2022/05/12 09:33:09;;;;;;;8.10;6.97;;;;;;;43.97;9.82;98112.09;5074896;28;20456;-62
2022/05/12 09:35:34;;;;;;;9.32;7.30;;;;;;;42.17;10.85;98100.41;5075811;28;20447;-64
2022/05/12 09:38:19;;;;;;;7.35;6.75;;;;;;;40.31;12.04;98111.97;5076133;28;20047;-63
2022/05/12 09:40:44;;;;;;;11.63;7.70;;;;;;;37.49;13.86;98097.13;5056912;28;20063;-63
2022/05/12 09:43:24;;;;;;;9.30;6.13;;;;;;;35.81;15.04;98099.72;5057100;28;20074;-64
2022/05/12 09:46:02;;;;;;;8.55;5.55;;;;;;;33.71;17.15;98094.47;5074998;28;20036;-64
2022/05/12 09:48:32;;;;;;;10.43;5.90;;;;;;;32.02;18.77;98086.19;5074727;28;20593;-64
2022/05/12 09:51:32;;;;;;;8.60;5.43;;;;;;;31.45;19.38;98085.94;5074919;28;20076;-64
2022/05/12 09:54:26;;;;;;;6.38;5.30;;;;;;;30.67;20.86;98067.97;5056692;28;20048;-64
2022/05/12 09:57:10;;;;;;;9.07;5.23;;;;;;;29.42;22.23;98074.91;5076196;28;20092;-64
2022/05/12 09:59:35;;;;;;;9.65;4.88;;;;;;;29.39;22.12;98067.22;5059979;28;20410;-63
2022/05/12 10:02:04;;;;;;;9.98;5.43;;;;;;;31.23;20.32;98067.00;5060589;28;20386;-64
2022/05/12 10:10:30;;;;;;;10.80;5.75;;;;;;;34.92;17.14;98061.31;5099156;27;20043;-61
2022/05/12 10:13:06;;;;;;;9.82;5.50;;;;;;;36.45;16.29;98061.59;5098884;27;20517;-61
2022/05/12 10:15:35;;;;;;;10.60;6.15;;;;;;;37.22;15.57;98059.28;5081475;27;20043;-61
2022/05/12 10:18:22;;;;;;;9.30;6.50;;;;;;;38.36;14.40;98061.94;5063964;27;20050;-61
2022/05/12 10:20:52;;;;;;;8.23;5.57;;;;;;;37.88;14.09;98062.88;5098841;27;20031;-61
2022/05/12 10:23:27;;;;;;;7.07;5.80;;;;;;;36.54;14.97;98054.16;5080132;27;20049;-62
2022/05/12 10:26:02;;;;;;;5.68;4.90;;;;;;;34.76;16.51;98051.66;5063192;27;20043;-62
2022/05/12 10:29:00;;;;;;;10.20;5.57;;;;;;;33.38;17.64;98030.81;5098520;27;20049;-62
2022/05/12 10:31:32;;;;;;;8.95;4.88;;;;;;;31.97;18.75;98025.56;5064187;27;20038;-61
2022/05/12 10:34:02;;;;;;;6.90;4.78;;;;;;;30.61;20.28;98010.47;5099140;27;20401;-62
2022/05/12 10:36:50;;;;;;;5.40;4.65;;;;;;;29.87;21.42;98013.78;5100659;27;20047;-62
2022/05/12 10:39:47;;;;;;;8.23;5.20;;;;;;;29.37;22.00;98012.56;5080832;27;20043;-61
2022/05/12 10:42:17;;;;;;;8.70;4.15;;;;;;;28.74;22.35;98008.97;5099308;27;20042;-60
2022/05/12 10:44:56;;;;;;;8.18;4.85;;;;;;;27.99;22.89;98009.25;5099417;27;20069;-61
2022/05/12 10:47:33;;;;;;;9.05;5.28;;;;;;;27.39;23.91;97993.88;5100423;27;20038;-61
2022/05/12 10:50:14;;;;;;;8.23;4.63;;;;;;;26.63;24.81;97992.91;5080118;27;20413;-62
2022/05/12 10:52:54;;;;;;;6.75;4.10;;;;;;;26.30;24.88;97982.84;5098902;27;20043;-60
2022/05/12 10:55:41;;;;;;;5.95;4.07;;;;;;;25.86;25.63;97976.41;5102518;27;20049;-61
2022/05/12 10:58:06;;;;;;;12.05;4.68;;;;;;;25.48;26.11;97983.38;5086812;27;20391;-62
2022/05/12 11:00:48;;;;;;;5.35;4.03;;;;;;;25.41;26.50;97990.03;5079773;27;20442;-62
2022/05/12 11:03:34;;;;;;;5.72;3.95;;;;;;;25.30;25.99;97984.41;5061883;27;20043;-62
2022/05/12 11:06:25;;;;;;;6.65;4.32;;;;;;;25.24;26.02;97981.84;5098523;27;20493;-61
2022/05/12 11:09:30;;;;;;;6.10;4.07;;;;;;;24.90;26.53;97970.78;5008408;28;20048;-62
2022/05/12 11:12:01;;;;;;;6.13;4.22;;;;;;;24.31;27.47;97962.97;5035775;28;21146;-62
2022/05/12 11:14:33;;;;;;;10.00;5.28;;;;;;;23.95;28.36;97964.81;5034704;28;20056;-62
2022/05/12 11:17:33;;;;;;;5.00;4.20;;;;;;;24.26;28.56;97952.81;5035663;28;20168;-62
2022/05/12 11:20:04;;;;;;;7.20;4.40;;;;;;;24.48;28.20;97953.00;5015128;28;20040;-63
2022/05/12 11:22:40;;;;;;;6.80;4.22;;;;;;;24.72;28.01;97940.97;5034430;28;20051;-63
2022/05/12 11:25:05;;;;;;;9.90;4.88;;;;;;;24.74;27.98;97938.81;5018105;28;20052;-62
2022/05/12 11:27:46;;;;;;;9.70;4.47;;;;;;;24.88;27.95;97937.47;5017579;28;20114;-63
2022/05/12 11:30:34;;;;;;;8.65;4.65;;;;;;;24.97;27.68;97940.69;5034454;28;20458;-65
2022/05/12 11:33:08;;;;;;;6.53;4.43;;;;;;;24.64;27.97;97925.00;5001322;28;20075;-69
2022/05/12 11:35:38;;;;;;;7.33;4.03;;;;;;;24.56;27.78;97922.66;5035308;28;20303;-64
2022/05/12 11:38:06;;;;;;;5.97;4.43;;;;;;;24.41;28.01;97914.97;5036797;28;20473;-65
2022/05/12 11:40:48;;;;;;;8.10;4.45;;;;;;;24.46;28.31;97914.28;5060063;27;20054;-66
2022/05/12 11:46:46;;;;;;;7.05;4.20;;;;;;;24.42;28.60;97915.81;5107240;27;20045;-63
2022/05/12 11:49:14;;;;;;;7.60;4.65;;;;;;;24.38;28.69;97915.47;5081101;27;20425;-61
2022/05/12 11:51:51;;;;;;;9.90;4.90;;;;;;;24.44;29.08;97916.41;5076874;28;20051;-62
2022/05/12 11:54:31;;;;;;;6.95;4.47;;;;;;;24.49;29.23;97916.53;5078076;27;20047;-62
2022/05/12 11:56:58;;;;;;;9.50;4.93;;;;;;;24.21;29.88;97899.00;5097048;27;20039;-63
2022/05/12 11:59:26;;;;;;;7.50;4.82;;;;;;;24.26;29.54;97905.69;5092665;27;20047;-64